sensor_id;sensor_type;location;lat;lon;timestamp;pressure;altitude;pressure_sealevel;temperature;humidity
84746;BME280;74975;51.922;6.480;2024-01-27T00:01:32;103330.22;;;1.12;95.46
84746;BME280;74975;51.922;6.480;2024-01-27T00:04:10;103330.03;;;1.15;95.51
84746;BME280;74975;51.922;6.480;2024-01-27T00:06:42;103337.50;;;1.21;95.76
84746;BME280;74975;51.922;6.480;2024-01-27T00:09:16;103334.06;;;1.20;95.48
84746;BME280;74975;51.922;6.480;2024-01-27T00:11:52;103336.31;;;1.11;95.24
84746;BME280;74975;51.922;6.480;2024-01-27T00:14:27;103333.09;;;1.06;95.80
84746;BME280;74975;51.922;6.480;2024-01-27T00:17:07;103339.03;;;1.08;95.75
84746;BME280;74975;51.922;6.480;2024-01-27T00:19:42;103344.84;;;1.13;95.46
84746;BME280;74975;51.922;6.480;2024-01-27T00:22:14;103350.66;;;1.01;95.00
84746;BME280;74975;51.922;6.480;2024-01-27T00:24:50;103347.38;;;0.97;95.73
84746;BME280;74975;51.922;6.480;2024-01-27T00:27:25;103348.06;;;1.01;95.76
84746;BME280;74975;51.922;6.480;2024-01-27T00:30:01;103346.31;;;1.01;95.54
84746;BME280;74975;51.922;6.480;2024-01-27T00:32:42;103356.06;;;0.96;95.21
84746;BME280;74975;51.922;6.480;2024-01-27T00:35:18;103351.41;;;0.86;96.46
84746;BME280;74975;51.922;6.480;2024-01-27T00:37:57;103346.16;;;0.87;96.13
84746;BME280;74975;51.922;6.480;2024-01-27T00:40:33;103342.72;;;0.87;95.92
84746;BME280;74975;51.922;6.480;2024-01-27T00:43:08;103342.03;;;0.83;95.73
84746;BME280;74975;51.922;6.480;2024-01-27T00:45:43;103350.50;;;0.87;96.05
84746;BME280;74975;51.922;6.480;2024-01-27T00:48:18;103347.44;;;0.79;95.72
84746;BME280;74975;51.922;6.480;2024-01-27T00:50:49;103347.91;;;0.70;95.67
84746;BME280;74975;51.922;6.480;2024-01-27T00:53:23;103348.50;;;0.57;95.46
84746;BME280;74975;51.922;6.480;2024-01-27T00:55:58;103353.28;;;0.48;95.63
84746;BME280;74975;51.922;6.480;2024-01-27T00:58:30;103344.56;;;0.49;95.65
84746;BME280;74975;51.922;6.480;2024-01-27T01:01:08;103345.41;;;0.49;96.66
84746;BME280;74975;51.922;6.480;2024-01-27T01:03:44;103353.94;;;0.51;96.99
84746;BME280;74975;51.922;6.480;2024-01-27T01:06:16;103355.91;;;0.65;96.92
84746;BME280;74975;51.922;6.480;2024-01-27T01:08:48;103358.25;;;0.70;96.99
84746;BME280;74975;51.922;6.480;2024-01-27T01:11:22;103353.31;;;0.65;96.41
84746;BME280;74975;51.922;6.480;2024-01-27T01:13:57;103355.50;;;0.55;96.41
84746;BME280;74975;51.922;6.480;2024-01-27T01:16:33;103356.38;;;0.37;95.76
84746;BME280;74975;51.922;6.480;2024-01-27T01:19:08;103355.69;;;0.15;95.64
84746;BME280;74975;51.922;6.480;2024-01-27T01:21:46;103368.88;;;-0.08;96.23
84746;BME280;74975;51.922;6.480;2024-01-27T01:24:18;103367.13;;;-0.08;97.54
84746;BME280;74975;51.922;6.480;2024-01-27T01:26:49;103367.59;;;0.00;97.89
84746;BME280;74975;51.922;6.480;2024-01-27T01:29:23;103372.34;;;-0.09;97.24
84746;BME280;74975;51.922;6.480;2024-01-27T01:31:56;103370.38;;;-0.04;98.13
84746;BME280;74975;51.922;6.480;2024-01-27T01:34:28;103371.22;;;-0.04;97.56
84746;BME280;74975;51.922;6.480;2024-01-27T01:37:03;103366.19;;;-0.25;97.19
84746;BME280;74975;51.922;6.480;2024-01-27T01:39:38;103379.03;;;-0.42;97.92
84746;BME280;74975;51.922;6.480;2024-01-27T01:42:16;103379.44;;;-0.51;98.00
84746;BME280;74975;51.922;6.480;2024-01-27T01:44:51;103370.88;;;-0.53;98.45
84746;BME280;74975;51.922;6.480;2024-01-27T01:47:23;103375.69;;;-0.64;97.94
84746;BME280;74975;51.922;6.480;2024-01-27T01:49:55;103379.69;;;-0.57;98.92
84746;BME280;74975;51.922;6.480;2024-01-27T01:52:28;103378.63;;;-0.33;100.00
84746;BME280;74975;51.922;6.480;2024-01-27T01:55:05;103379.34;;;-0.30;99.71
84746;BME280;74975;51.922;6.480;2024-01-27T01:57:41;103376.22;;;-0.38;99.30
84746;BME280;74975;51.922;6.480;2024-01-27T02:00:18;103379.69;;;-0.57;98.91
84746;BME280;74975;51.922;6.480;2024-01-27T02:02:52;103380.59;;;-0.58;98.86
84746;BME280;74975;51.922;6.480;2024-01-27T02:05:28;103387.72;;;-0.63;98.88
84746;BME280;74975;51.922;6.480;2024-01-27T02:07:59;103387.44;;;-0.78;98.76
84746;BME280;74975;51.922;6.480;2024-01-27T02:10:33;103383.00;;;-0.74;99.48
84746;BME280;74975;51.922;6.480;2024-01-27T02:13:16;103381.44;;;-0.78;99.54
84746;BME280;74975;51.922;6.480;2024-01-27T02:15:49;103377.28;;;-0.82;99.58
84746;BME280;74975;51.922;6.480;2024-01-27T02:18:21;103378.88;;;-0.78;99.82
84746;BME280;74975;51.922;6.480;2024-01-27T02:20:53;103372.13;;;-0.62;100.00
84746;BME280;74975;51.922;6.480;2024-01-27T02:23:28;103371.03;;;-0.56;100.00
84746;BME280;74975;51.922;6.480;2024-01-27T02:26:04;103371.69;;;-0.51;100.00
84746;BME280;74975;51.922;6.480;2024-01-27T02:28:43;103372.25;;;-0.45;100.00
84746;BME280;74975;51.922;6.480;2024-01-27T02:31:14;103372.41;;;-0.29;100.00
84746;BME280;74975;51.922;6.480;2024-01-27T02:33:46;103376.66;;;-0.28;100.00
84746;BME280;74975;51.922;6.480;2024-01-27T02:36:18;103380.97;;;-0.47;99.97
84746;BME280;74975;51.922;6.480;2024-01-27T02:38:53;103385.19;;;-0.65;99.59
84746;BME280;74975;51.922;6.480;2024-01-27T02:41:19;103383.53;;;-0.66;99.89
84746;BME280;74975;51.922;6.480;2024-01-27T02:43:54;103382.91;;;-0.52;100.00
84746;BME280;74975;51.922;6.480;2024-01-27T02:46:26;103385.09;;;-0.43;100.00
84746;BME280;74975;51.922;6.480;2024-01-27T02:48:58;103380.19;;;-0.49;100.00
84746;BME280;74975;51.922;6.480;2024-01-27T02:51:30;103381.28;;;-0.35;100.00
84746;BME280;74975;51.922;6.480;2024-01-27T02:54:09;103376.66;;;-0.28;100.00
84746;BME280;74975;51.922;6.480;2024-01-27T02:56:43;103370.66;;;-0.29;100.00
84746;BME280;74975;51.922;6.480;2024-01-27T02:59:22;103381.44;;;-0.19;100.00
84746;BME280;74975;51.922;6.480;2024-01-27T03:01:53;103368.06;;;-0.29;100.00
84746;BME280;74975;51.922;6.480;2024-01-27T03:04:29;103371.91;;;-0.37;100.00
84746;BME280;74975;51.922;6.480;2024-01-27T03:06:59;103379.66;;;-0.37;100.00
84746;BME280;74975;51.922;6.480;2024-01-27T03:09:36;103390.16;;;-0.40;100.00
84746;BME280;74975;51.922;6.480;2024-01-27T03:12:07;103380.97;;;-0.47;100.00
84746;BME280;74975;51.922;6.480;2024-01-27T03:14:45;103367.94;;;-0.64;100.00
84746;BME280;74975;51.922;6.480;2024-01-27T03:17:21;103379.00;;;-0.61;99.67
84746;BME280;74975;51.922;6.480;2024-01-27T03:19:52;103375.75;;;-0.66;99.30
84746;BME280;74975;51.922;6.480;2024-01-27T03:22:31;103377.66;;;-0.51;100.00
84746;BME280;74975;51.922;6.480;2024-01-27T03:25:05;103383.03;;;-0.35;100.00
84746;BME280;74975;51.922;6.480;2024-01-27T03:27:44;103382.94;;;-0.34;99.90
84746;BME280;74975;51.922;6.480;2024-01-27T03:30:19;103382.59;;;-0.26;100.00
84746;BME280;74975;51.922;6.480;2024-01-27T03:32:55;103388.28;;;-0.18;99.88
84746;BME280;74975;51.922;6.480;2024-01-27T03:35:37;103388.41;;;-0.21;99.57
84746;BME280;74975;51.922;6.480;2024-01-27T03:38:12;103400.25;;;-0.16;99.25
84746;BME280;74975;51.922;6.480;2024-01-27T03:40:52;103400.38;;;-0.19;99.62
84746;BME280;74975;51.922;6.480;2024-01-27T03:43:22;103407.06;;;-0.13;99.21
84746;BME280;74975;51.922;6.480;2024-01-27T03:45:56;103403.53;;;-0.12;99.28
84746;BME280;74975;51.922;6.480;2024-01-27T03:48:28;103395.00;;;-0.14;99.46
84746;BME280;74975;51.922;6.480;2024-01-27T03:50:58;103400.91;;;-0.11;99.09
84746;BME280;74975;51.922;6.480;2024-01-27T03:53:32;103396.31;;;-0.24;98.44
84746;BME280;74975;51.922;6.480;2024-01-27T03:56:04;103396.03;;;-0.37;98.31
84746;BME280;74975;51.922;6.480;2024-01-27T03:58:36;103388.81;;;-0.49;97.86
84746;BME280;74975;51.922;6.480;2024-01-27T04:01:09;103397.59;;;-0.53;98.92
84746;BME280;74975;51.922;6.480;2024-01-27T04:03:44;103398.56;;;-0.55;99.08
84746;BME280;74975;51.922;6.480;2024-01-27T04:06:16;103395.97;;;-0.55;99.82
84746;BME280;74975;51.922;6.480;2024-01-27T04:08:48;103405.22;;;-0.50;99.88
84746;BME280;74975;51.922;6.480;2024-01-27T04:11:23;103404.13;;;-0.44;99.85
84746;BME280;74975;51.922;6.480;2024-01-27T04:13:56;103408.66;;;-0.29;99.91
84746;BME280;74975;51.922;6.480;2024-01-27T04:16:27;103407.84;;;-0.31;99.17
84746;BME280;74975;51.922;6.480;2024-01-27T04:18:57;103406.56;;;-0.41;98.50
84746;BME280;74975;51.922;6.480;2024-01-27T04:21:35;103418.34;;;-0.54;98.03
84746;BME280;74975;51.922;6.480;2024-01-27T04:24:07;103422.16;;;-0.63;99.01
84746;BME280;74975;51.922;6.480;2024-01-27T04:26:42;103423.66;;;-0.57;99.18
84746;BME280;74975;51.922;6.480;2024-01-27T04:29:25;103425.34;;;-0.56;98.97
84746;BME280;74975;51.922;6.480;2024-01-27T04:32:01;103426.00;;;-0.51;98.34
84746;BME280;74975;51.922;6.480;2024-01-27T04:34:34;103422.22;;;-0.64;98.37
84746;BME280;74975;51.922;6.480;2024-01-27T04:37:08;103417.69;;;-0.80;98.82
84746;BME280;74975;51.922;6.480;2024-01-27T04:39:39;103414.16;;;-0.77;99.49
84746;BME280;74975;51.922;6.480;2024-01-27T04:42:11;103416.69;;;-0.76;99.58
84746;BME280;74975;51.922;6.480;2024-01-27T04:44:42;103417.13;;;-0.66;99.80
84746;BME280;74975;51.922;6.480;2024-01-27T04:47:13;103416.63;;;-0.54;100.00
84746;BME280;74975;51.922;6.480;2024-01-27T04:49:44;103411.88;;;-0.44;99.87
84746;BME280;74975;51.922;6.480;2024-01-27T04:52:18;103407.28;;;-0.38;100.00
84746;BME280;74975;51.922;6.480;2024-01-27T04:54:50;103412.47;;;-0.38;98.81
84746;BME280;74975;51.922;6.480;2024-01-27T04:57:25;103401.91;;;-0.53;98.73
84746;BME280;74975;51.922;6.480;2024-01-27T05:00:07;103400.13;;;-0.51;99.19
84746;BME280;74975;51.922;6.480;2024-01-27T05:02:45;103395.78;;;-0.51;99.87
84746;BME280;74975;51.922;6.480;2024-01-27T05:05:15;103397.13;;;-0.42;99.99
84746;BME280;74975;51.922;6.480;2024-01-27T05:07:56;103392.72;;;-0.40;100.00
84746;BME280;74975;51.922;6.480;2024-01-27T05:10:28;103391.63;;;-0.35;100.00
84746;BME280;74975;51.922;6.480;2024-01-27T05:12:56;103388.75;;;-0.29;99.86
84746;BME280;74975;51.922;6.480;2024-01-27T05:15:32;103395.53;;;-0.26;99.45
84746;BME280;74975;51.922;6.480;2024-01-27T05:18:08;103380.31;;;-0.32;99.52
84746;BME280;74975;51.922;6.480;2024-01-27T05:20:44;103379.59;;;-0.36;98.94
84746;BME280;74975;51.922;6.480;2024-01-27T05:23:17;103384.44;;;-0.48;98.22
84746;BME280;74975;51.922;6.480;2024-01-27T05:25:59;103391.13;;;-0.63;98.61
84746;BME280;74975;51.922;6.480;2024-01-27T05:28:35;103395.59;;;-0.67;98.76
84746;BME280;74975;51.922;6.480;2024-01-27T05:31:10;103395.16;;;-0.76;98.24
84746;BME280;74975;51.922;6.480;2024-01-27T05:33:48;103391.34;;;-0.88;98.86
84746;BME280;74975;51.922;6.480;2024-01-27T05:36:25;103393.50;;;-0.99;99.28
84746;BME280;74975;51.922;6.480;2024-01-27T05:38:59;103392.66;;;-0.99;99.72
84746;BME280;74975;51.922;6.480;2024-01-27T05:41:33;103389.88;;;-1.15;99.26
84746;BME280;74975;51.922;6.480;2024-01-27T05:44:05;103403.97;;;-1.02;100.00
84746;BME280;74975;51.922;6.480;2024-01-27T05:46:36;103404.69;;;-0.98;100.00
84746;BME280;74975;51.922;6.480;2024-01-27T05:49:07;103403.16;;;-1.02;100.00
84746;BME280;74975;51.922;6.480;2024-01-27T05:51:40;103412.59;;;-0.81;100.00
84746;BME280;74975;51.922;6.480;2024-01-27T05:54:07;103401.28;;;-0.79;100.00
84746;BME280;74975;51.922;6.480;2024-01-27T05:56:48;103411.13;;;-0.67;100.00
84746;BME280;74975;51.922;6.480;2024-01-27T05:59:24;103410.72;;;-0.57;100.00
84746;BME280;74975;51.922;6.480;2024-01-27T06:01:55;103403.16;;;-0.62;99.49
84746;BME280;74975;51.922;6.480;2024-01-27T06:04:28;103411.00;;;-0.63;100.00
84746;BME280;74975;51.922;6.480;2024-01-27T06:07:05;103414.22;;;-0.58;100.00
84746;BME280;74975;51.922;6.480;2024-01-27T06:09:40;103415.81;;;-0.56;100.00
84746;BME280;74975;51.922;6.480;2024-01-27T06:12:17;103411.88;;;-0.44;100.00
84746;BME280;74975;51.922;6.480;2024-01-27T06:14:50;103417.75;;;-0.41;100.00
84746;BME280;74975;51.922;6.480;2024-01-27T06:17:30;103420.41;;;-0.42;100.00
84746;BME280;74975;51.922;6.480;2024-01-27T06:20:08;103416.22;;;-0.45;100.00
84746;BME280;74975;51.922;6.480;2024-01-27T06:22:43;103417.19;;;-0.47;100.00
84746;BME280;74975;51.922;6.480;2024-01-27T06:25:22;103423.66;;;-0.37;100.00
84746;BME280;74975;51.922;6.480;2024-01-27T06:28:00;103420.41;;;-0.42;100.00
84746;BME280;74975;51.922;6.480;2024-01-27T06:30:36;103427.47;;;-0.46;99.99
84746;BME280;74975;51.922;6.480;2024-01-27T06:33:11;103428.06;;;-0.39;100.00
84746;BME280;74975;51.922;6.480;2024-01-27T06:35:44;103425.59;;;-0.42;100.00
84746;BME280;74975;51.922;6.480;2024-01-27T06:38:15;103430.38;;;-0.53;99.66
84746;BME280;74975;51.922;6.480;2024-01-27T06:40:47;103420.50;;;-0.44;99.79
84746;BME280;74975;51.922;6.480;2024-01-27T06:43:22;103421.97;;;-0.38;99.60
84746;BME280;74975;51.922;6.480;2024-01-27T06:46:01;103426.66;;;-0.46;98.93
84746;BME280;74975;51.922;6.480;2024-01-27T06:48:35;103426.38;;;-0.60;98.86
84746;BME280;74975;51.922;6.480;2024-01-27T06:51:06;103425.59;;;-0.62;98.80
84746;BME280;74975;51.922;6.480;2024-01-27T06:53:40;103431.81;;;-0.67;98.93
84746;BME280;74975;51.922;6.480;2024-01-27T06:56:17;103434.13;;;-0.60;99.86
84746;BME280;74975;51.922;6.480;2024-01-27T06:58:53;103440.72;;;-0.53;99.89
84746;BME280;74975;51.922;6.480;2024-01-27T07:01:33;103442.53;;;-0.35;99.73
84746;BME280;74975;51.922;6.480;2024-01-27T07:04:04;103441.34;;;-0.28;100.00
84746;BME280;74975;51.922;6.480;2024-01-27T07:06:40;103445.63;;;-0.27;99.48
84746;BME280;74975;51.922;6.480;2024-01-27T07:09:14;103442.84;;;-0.23;99.60
84746;BME280;74975;51.922;6.480;2024-01-27T07:11:46;103437.72;;;-0.24;99.61
84746;BME280;74975;51.922;6.480;2024-01-27T07:14:25;103438.91;;;-0.31;99.11
84746;BME280;74975;51.922;6.480;2024-01-27T07:16:55;103437.81;;;-0.26;99.64
84746;BME280;74975;51.922;6.480;2024-01-27T07:19:28;103433.94;;;-0.36;98.51
84746;BME280;74975;51.922;6.480;2024-01-27T07:22:03;103449.66;;;-0.40;97.99
84746;BME280;74975;51.922;6.480;2024-01-27T07:24:38;103449.56;;;-0.39;98.99
84746;BME280;74975;51.922;6.480;2024-01-27T07:27:11;103448.44;;;-0.32;98.37
84746;BME280;74975;51.922;6.480;2024-01-27T07:29:40;103448.97;;;-0.44;98.07
84746;BME280;74975;51.922;6.480;2024-01-27T07:32:14;103447.06;;;-0.40;98.26
84746;BME280;74975;51.922;6.480;2024-01-27T07:34:49;103445.53;;;-0.44;97.86
84746;BME280;74975;51.922;6.480;2024-01-27T07:37:20;103444.16;;;-0.53;97.84
84746;BME280;74975;51.922;6.480;2024-01-27T07:40:01;103454.19;;;-0.45;98.09
84746;BME280;74975;51.922;6.480;2024-01-27T07:42:33;103450.28;;;-0.55;97.17
84746;BME280;74975;51.922;6.480;2024-01-27T07:45:09;103456.44;;;-0.58;97.84
84746;BME280;74975;51.922;6.480;2024-01-27T07:47:42;103463.88;;;-0.50;97.96
84746;BME280;74975;51.922;6.480;2024-01-27T07:50:23;103468.84;;;-0.46;98.26
84746;BME280;74975;51.922;6.480;2024-01-27T07:53:00;103477.34;;;-0.42;97.95
84746;BME280;74975;51.922;6.480;2024-01-27T07:55:36;103473.47;;;-0.32;98.46
84746;BME280;74975;51.922;6.480;2024-01-27T07:58:13;103478.00;;;-0.17;98.57
84746;BME280;74975;51.922;6.480;2024-01-27T08:00:56;103475.13;;;-0.11;97.86
84746;BME280;74975;51.922;6.480;2024-01-27T08:03:32;103476.66;;;-0.07;97.87
84746;BME280;74975;51.922;6.480;2024-01-27T08:06:14;103474.91;;;-0.07;98.18
84746;BME280;74975;51.922;6.480;2024-01-27T08:08:49;103473.03;;;-0.03;97.47
84746;BME280;74975;51.922;6.480;2024-01-27T08:11:20;103479.50;;;0.07;98.49
84746;BME280;74975;51.922;6.480;2024-01-27T08:13:49;103476.84;;;0.27;97.54
84746;BME280;74975;51.922;6.480;2024-01-27T08:16:25;103476.47;;;0.36;97.35
84746;BME280;74975;51.922;6.480;2024-01-27T08:19:01;103484.06;;;0.39;96.76
84746;BME280;74975;51.922;6.480;2024-01-27T08:21:42;103480.78;;;0.54;96.75
84746;BME280;74975;51.922;6.480;2024-01-27T08:24:14;103486.25;;;0.67;95.80
84746;BME280;74975;51.922;6.480;2024-01-27T08:26:46;103491.28;;;0.70;95.68
84746;BME280;74975;51.922;6.480;2024-01-27T08:29:23;103487.16;;;0.85;95.29
84746;BME280;74975;51.922;6.480;2024-01-27T08:31:58;103490.69;;;1.01;94.86
84746;BME280;74975;51.922;6.480;2024-01-27T08:34:33;103494.13;;;1.01;95.20
84746;BME280;74975;51.922;6.480;2024-01-27T08:37:18;103499.84;;;1.08;94.05
84746;BME280;74975;51.922;6.480;2024-01-27T08:39:50;103499.25;;;1.20;94.69
84746;BME280;74975;51.922;6.480;2024-01-27T08:42:22;103493.03;;;1.24;94.00
84746;BME280;74975;51.922;6.480;2024-01-27T08:44:57;103493.78;;;1.26;94.29
84746;BME280;74975;51.922;6.480;2024-01-27T08:47:33;103489.50;;;1.42;93.76
84746;BME280;74975;51.922;6.480;2024-01-27T08:50:11;103507.59;;;1.61;93.00
84746;BME280;74975;51.922;6.480;2024-01-27T08:52:50;103510.25;;;1.76;92.11
84746;BME280;74975;51.922;6.480;2024-01-27T08:55:25;103506.66;;;1.96;91.45
84746;BME280;74975;51.922;6.480;2024-01-27T08:58:00;103501.06;;;2.04;91.33
84746;BME280;74975;51.922;6.480;2024-01-27T09:00:38;103503.03;;;2.16;90.72
84746;BME280;74975;51.922;6.480;2024-01-27T09:03:09;103512.25;;;2.21;90.71
84746;BME280;74975;51.922;6.480;2024-01-27T09:05:44;103513.06;;;2.54;89.79
84746;BME280;74975;51.922;6.480;2024-01-27T09:08:19;103515.84;;;2.67;88.60
84746;BME280;74975;51.922;6.480;2024-01-27T09:10:50;103511.72;;;2.63;88.74
84746;BME280;74975;51.922;6.480;2024-01-27T09:13:27;103514.44;;;2.77;88.99
84746;BME280;74975;51.922;6.480;2024-01-27T09:16:03;103518.59;;;2.64;89.79
84746;BME280;74975;51.922;6.480;2024-01-27T09:18:34;103512.91;;;2.57;90.19
84746;BME280;74975;51.922;6.480;2024-01-27T09:21:13;103511.31;;;2.71;90.04
84746;BME280;74975;51.922;6.480;2024-01-27T09:23:51;103502.25;;;2.93;88.54
84746;BME280;74975;51.922;6.480;2024-01-27T09:26:26;103503.72;;;3.28;87.64
84746;BME280;74975;51.922;6.480;2024-01-27T09:29:01;103506.56;;;3.54;87.60
84746;BME280;74975;51.922;6.480;2024-01-27T09:31:26;103506.41;;;3.71;86.18
84746;BME280;74975;51.922;6.480;2024-01-27T09:33:59;103508.09;;;3.72;85.11
84746;BME280;74975;51.922;6.480;2024-01-27T09:36:30;103518.09;;;3.93;84.63
84746;BME280;74975;51.922;6.480;2024-01-27T09:39:08;103518.16;;;3.78;85.52
84746;BME280;74975;51.922;6.480;2024-01-27T09:41:46;103520.97;;;3.89;85.10
84746;BME280;74975;51.922;6.480;2024-01-27T09:44:19;103528.63;;;4.06;85.27
84746;BME280;74975;51.922;6.480;2024-01-27T09:46:55;103524.63;;;4.29;84.56
84746;BME280;74975;51.922;6.480;2024-01-27T09:49:29;103523.41;;;4.34;83.43
84746;BME280;74975;51.922;6.480;2024-01-27T09:52:01;103527.22;;;4.29;82.94
84746;BME280;74975;51.922;6.480;2024-01-27T09:54:47;103518.59;;;4.28;84.25
84746;BME280;74975;51.922;6.480;2024-01-27T09:57:19;103512.03;;;4.49;82.81
84746;BME280;74975;51.922;6.480;2024-01-27T09:59:55;103521.47;;;4.38;84.20
84746;BME280;74975;51.922;6.480;2024-01-27T10:02:28;103523.03;;;4.40;83.17
84746;BME280;74975;51.922;6.480;2024-01-27T10:05:01;103520.72;;;4.22;84.08
84746;BME280;74975;51.922;6.480;2024-01-27T10:07:33;103525.63;;;3.98;85.04
84746;BME280;74975;51.922;6.480;2024-01-27T10:10:04;103529.16;;;3.97;86.09
84746;BME280;74975;51.922;6.480;2024-01-27T10:12:42;103534.75;;;4.05;85.67
84746;BME280;74975;51.922;6.480;2024-01-27T10:15:28;103537.19;;;4.22;85.54
84746;BME280;74975;51.922;6.480;2024-01-27T10:18:13;103540.91;;;4.18;84.97
84746;BME280;74975;51.922;6.480;2024-01-27T10:20:46;103540.75;;;4.35;84.22
84746;BME280;74975;51.922;6.480;2024-01-27T10:23:18;103551.72;;;4.54;84.24
84746;BME280;74975;51.922;6.480;2024-01-27T10:25:53;103548.88;;;4.86;82.57
84746;BME280;74975;51.922;6.480;2024-01-27T10:28:28;103543.44;;;5.03;82.13
84746;BME280;74975;51.922;6.480;2024-01-27T10:31:14;103534.94;;;5.26;81.18
84746;BME280;74975;51.922;6.480;2024-01-27T10:33:52;103538.44;;;5.39;81.83
84746;BME280;74975;51.922;6.480;2024-01-27T10:36:25;103539.03;;;5.82;81.10
84746;BME280;74975;51.922;6.480;2024-01-27T10:39:13;103544.44;;;5.93;78.25
84746;BME280;74975;51.922;6.480;2024-01-27T10:41:45;103550.28;;;6.09;79.33
84746;BME280;74975;51.922;6.480;2024-01-27T10:44:19;103557.50;;;6.31;78.09
84746;BME280;74975;51.922;6.480;2024-01-27T10:47:01;103555.91;;;6.28;77.94
84746;BME280;74975;51.922;6.480;2024-01-27T10:49:36;103564.00;;;6.13;78.31
84746;BME280;74975;51.922;6.480;2024-01-27T10:52:14;103555.72;;;5.93;77.72
84746;BME280;74975;51.922;6.480;2024-01-27T10:54:58;103557.50;;;5.93;77.53
84746;BME280;74975;51.922;6.480;2024-01-27T10:57:32;103548.19;;;5.62;79.72
84746;BME280;74975;51.922;6.480;2024-01-27T11:00:06;103545.84;;;5.45;80.22
84746;BME280;74975;51.922;6.480;2024-01-27T11:02:36;103550.06;;;5.60;81.12
84746;BME280;74975;51.922;6.480;2024-01-27T11:05:05;103546.63;;;5.86;80.23
84746;BME280;74975;51.922;6.480;2024-01-27T11:07:35;103549.34;;;5.97;79.08
84746;BME280;74975;51.922;6.480;2024-01-27T11:10:14;103548.50;;;6.22;78.88
84746;BME280;74975;51.922;6.480;2024-01-27T11:12:50;103542.03;;;6.15;78.81
84746;BME280;74975;51.922;6.480;2024-01-27T11:15:22;103544.53;;;6.29;78.15
84746;BME280;74975;51.922;6.480;2024-01-27T11:17:56;103548.00;;;6.30;78.20
84746;BME280;74975;51.922;6.480;2024-01-27T11:20:38;103543.88;;;6.26;78.99
84746;BME280;74975;51.922;6.480;2024-01-27T11:23:16;103547.41;;;6.50;78.44
84746;BME280;74975;51.922;6.480;2024-01-27T11:26:02;103539.47;;;6.64;74.94
84746;BME280;74975;51.922;6.480;2024-01-27T11:28:30;103534.06;;;6.42;77.29
84746;BME280;74975;51.922;6.480;2024-01-27T11:31:06;103527.19;;;6.16;79.24
84746;BME280;74975;51.922;6.480;2024-01-27T11:33:41;103522.81;;;6.52;77.49
84746;BME280;74975;51.922;6.480;2024-01-27T11:36:18;103516.81;;;6.76;77.41
84746;BME280;74975;51.922;6.480;2024-01-27T11:38:47;103523.66;;;6.89;75.27
84746;BME280;74975;51.922;6.480;2024-01-27T11:41:30;103528.06;;;6.52;76.47
84746;BME280;74975;51.922;6.480;2024-01-27T11:44:02;103529.03;;;6.39;77.23
84746;BME280;74975;51.922;6.480;2024-01-27T11:46:39;103523.59;;;6.42;77.27
84746;BME280;74975;51.922;6.480;2024-01-27T11:49:15;103525.06;;;6.70;77.81
84746;BME280;74975;51.922;6.480;2024-01-27T11:51:48;103524.28;;;6.93;76.24
84746;BME280;74975;51.922;6.480;2024-01-27T11:54:15;103519.94;;;7.04;75.36
84746;BME280;74975;51.922;6.480;2024-01-27T11:56:46;103522.78;;;7.01;73.98
84746;BME280;74975;51.922;6.480;2024-01-27T11:59:21;103528.56;;;6.94;74.66
84746;BME280;74975;51.922;6.480;2024-01-27T12:01:52;103528.53;;;7.30;73.46
84746;BME280;74975;51.922;6.480;2024-01-27T12:04:23;103529.28;;;7.78;74.47
84746;BME280;74975;51.922;6.480;2024-01-27T12:06:55;103540.94;;;7.74;73.14
84746;BME280;74975;51.922;6.480;2024-01-27T12:09:24;103540.34;;;7.81;71.32
84746;BME280;74975;51.922;6.480;2024-01-27T12:11:57;103535.81;;;7.72;73.37
84746;BME280;74975;51.922;6.480;2024-01-27T12:14:27;103525.22;;;7.85;71.56
84746;BME280;74975;51.922;6.480;2024-01-27T12:17:12;103522.13;;;7.80;70.18
84746;BME280;74975;51.922;6.480;2024-01-27T12:19:53;103524.75;;;7.91;71.67
84746;BME280;74975;51.922;6.480;2024-01-27T12:22:26;103514.25;;;7.91;69.52
84746;BME280;74975;51.922;6.480;2024-01-27T12:25:13;103518.34;;;8.06;69.37
84746;BME280;74975;51.922;6.480;2024-01-27T12:27:49;103507.25;;;8.03;69.42
84746;BME280;74975;51.922;6.480;2024-01-27T12:30:34;103507.00;;;7.94;67.83
84746;BME280;74975;51.922;6.480;2024-01-27T12:33:12;103516.91;;;8.13;68.35
84746;BME280;74975;51.922;6.480;2024-01-27T12:35:39;103527.88;;;8.18;69.55
84746;BME280;74975;51.922;6.480;2024-01-27T12:38:12;103516.72;;;8.27;68.60
84746;BME280;74975;51.922;6.480;2024-01-27T12:40:43;103516.44;;;8.52;68.47
84746;BME280;74975;51.922;6.480;2024-01-27T12:43:17;103521.81;;;8.62;68.44
84746;BME280;74975;51.922;6.480;2024-01-27T12:45:45;103515.97;;;8.58;67.17
84746;BME280;74975;51.922;6.480;2024-01-27T12:48:20;103516.56;;;8.62;67.71
84746;BME280;74975;51.922;6.480;2024-01-27T12:50:54;103511.94;;;8.43;67.10
84746;BME280;74975;51.922;6.480;2024-01-27T12:53:27;103517.91;;;8.56;68.60
84746;BME280;74975;51.922;6.480;2024-01-27T12:56:05;103509.63;;;8.72;68.92
84746;BME280;74975;51.922;6.480;2024-01-27T12:58:40;103502.59;;;8.73;66.57
84746;BME280;74975;51.922;6.480;2024-01-27T13:01:17;103506.75;;;8.64;66.33
84746;BME280;74975;51.922;6.480;2024-01-27T13:03:53;103502.06;;;8.79;66.36
84746;BME280;74975;51.922;6.480;2024-01-27T13:06:24;103504.69;;;8.79;65.90
84746;BME280;74975;51.922;6.480;2024-01-27T13:09:07;103497.50;;;8.92;65.26
84746;BME280;74975;51.922;6.480;2024-01-27T13:11:44;103494.66;;;8.95;65.05
84746;BME280;74975;51.922;6.480;2024-01-27T13:14:17;103499.75;;;8.96;65.93
84746;BME280;74975;51.922;6.480;2024-01-27T13:16:47;103495.38;;;9.17;64.66
84746;BME280;74975;51.922;6.480;2024-01-27T13:19:27;103493.19;;;9.34;64.64
84746;BME280;74975;51.922;6.480;2024-01-27T13:21:59;103491.66;;;9.20;62.90
84746;BME280;74975;51.922;6.480;2024-01-27T13:24:32;103485.84;;;8.85;63.80
84746;BME280;74975;51.922;6.480;2024-01-27T13:27:06;103499.63;;;8.66;66.81
84746;BME280;74975;51.922;6.480;2024-01-27T13:29:45;103492.03;;;8.84;65.76
84746;BME280;74975;51.922;6.480;2024-01-27T13:32:18;103495.78;;;8.70;65.73